Terminal Aerodrome Forecast
Issued by NWS

Home | Current Version | Previous Version | Text Only | Print | Product List | Glossary Off
Versions: 1 2 3 4 5 6 7 8 9 10 11 12 13 14 15 16 17 18 19 20 21 22 23 24 25 26 27 28 29 30 31 32 33

896
FTUS43 KLOT 282302 AAC
TAFMDW
TAF AMD
KMDW 282302Z 2823/2918 36012KT P6SM VCTS SCT045CB BKN070
     FM282330 04018G32KT 5SM -SHRA VCTS SCT025CB OVC040
     FM290100 02012G18KT P6SM BKN035
     FM291400 03016G25KT P6SM BKN020=

USA.gov is the U.S. government's official web portal to all federal, state and local government web resources and services.